Wheatland, California
Current Conditions -  °F | °C
As of 2:15 PM on Thursday 23 Oct 2014 (Local Time) from KLHM Reporting Station
Clear Clear  
Wind Chill: 73°   Ceiling: Unl
Heat Index: 73°   Visibility: 10mi
Dew Point: 46°   Wind: 5mph
Humidity: 38%   Direction: 250°WSW
Pressure: 30.01"   Gusts: NA
Location:  39.01°N, 121.42°W
Report Text: KLHM 232115Z AUTO 25004KT 10SM CLR 23/08 A3001 RMK AO1
Loading
Personal Weather Stations






























Interactive Weather Map
Tropical Storm Tracking
New forecast layout! Learn more

10-Day Weather Forecast

Advertisements
Track Severe Weather on mobile